sensor_id;sensor_type;location;lat;lon;timestamp;P1;durP1;ratioP1;P2;durP2;ratioP2
67861;SDS011;54665;51.462;6.698;2023-04-15T00:01:24;14.50;;;7.05;;
67861;SDS011;54665;51.462;6.698;2023-04-15T00:03:51;17.02;;;7.35;;
67861;SDS011;54665;51.462;6.698;2023-04-15T00:06:17;17.70;;;7.50;;
67861;SDS011;54665;51.462;6.698;2023-04-15T00:08:43;15.98;;;7.10;;
67861;SDS011;54665;51.462;6.698;2023-04-15T00:11:09;15.30;;;7.20;;
67861;SDS011;54665;51.462;6.698;2023-04-15T00:13:35;15.27;;;7.33;;
67861;SDS011;54665;51.462;6.698;2023-04-15T00:16:01;15.87;;;7.47;;
67861;SDS011;54665;51.462;6.698;2023-04-15T00:18:26;15.23;;;7.30;;
67861;SDS011;54665;51.462;6.698;2023-04-15T00:20:53;16.42;;;7.30;;
67861;SDS011;54665;51.462;6.698;2023-04-15T00:23:19;16.13;;;7.30;;
67861;SDS011;54665;51.462;6.698;2023-04-15T00:25:44;15.33;;;7.30;;
67861;SDS011;54665;51.462;6.698;2023-04-15T00:28:09;17.17;;;7.00;;
67861;SDS011;54665;51.462;6.698;2023-04-15T00:30:35;13.90;;;7.10;;
67861;SDS011;54665;51.462;6.698;2023-04-15T00:33:00;16.17;;;7.50;;
67861;SDS011;54665;51.462;6.698;2023-04-15T00:35:29;16.77;;;7.72;;
67861;SDS011;54665;51.462;6.698;2023-04-15T00:37:57;14.50;;;7.07;;
67861;SDS011;54665;51.462;6.698;2023-04-15T00:40:22;21.50;;;7.45;;
67861;SDS011;54665;51.462;6.698;2023-04-15T00:42:48;18.67;;;7.88;;
67861;SDS011;54665;51.462;6.698;2023-04-15T00:45:14;18.40;;;7.80;;
67861;SDS011;54665;51.462;6.698;2023-04-15T00:47:40;13.27;;;6.63;;
67861;SDS011;54665;51.462;6.698;2023-04-15T00:50:07;16.90;;;7.88;;
67861;SDS011;54665;51.462;6.698;2023-04-15T00:52:33;13.65;;;6.90;;
67861;SDS011;54665;51.462;6.698;2023-04-15T00:54:59;18.27;;;8.13;;
67861;SDS011;54665;51.462;6.698;2023-04-15T00:57:25;15.80;;;7.77;;
67861;SDS011;54665;51.462;6.698;2023-04-15T00:59:52;15.93;;;7.57;;
67861;SDS011;54665;51.462;6.698;2023-04-15T01:02:20;15.80;;;7.45;;
67861;SDS011;54665;51.462;6.698;2023-04-15T01:04:46;15.88;;;7.28;;
67861;SDS011;54665;51.462;6.698;2023-04-15T01:07:11;15.70;;;7.40;;
67861;SDS011;54665;51.462;6.698;2023-04-15T01:09:37;16.53;;;7.47;;
67861;SDS011;54665;51.462;6.698;2023-04-15T01:12:02;17.20;;;7.80;;
67861;SDS011;54665;51.462;6.698;2023-04-15T01:14:29;16.63;;;7.30;;
67861;SDS011;54665;51.462;6.698;2023-04-15T01:16:54;17.08;;;7.78;;
67861;SDS011;54665;51.462;6.698;2023-04-15T01:19:20;15.63;;;7.30;;
67861;SDS011;54665;51.462;6.698;2023-04-15T01:21:46;14.82;;;7.57;;
67861;SDS011;54665;51.462;6.698;2023-04-15T01:24:11;20.57;;;7.77;;
67861;SDS011;54665;51.462;6.698;2023-04-15T01:26:40;21.65;;;8.10;;
67861;SDS011;54665;51.462;6.698;2023-04-15T01:29:06;19.73;;;8.27;;
67861;SDS011;54665;51.462;6.698;2023-04-15T01:31:32;18.50;;;8.23;;
67861;SDS011;54665;51.462;6.698;2023-04-15T01:33:58;15.98;;;7.82;;
67861;SDS011;54665;51.462;6.698;2023-04-15T01:36:23;15.00;;;7.70;;
67861;SDS011;54665;51.462;6.698;2023-04-15T01:38:51;17.48;;;8.40;;
67861;SDS011;54665;51.462;6.698;2023-04-15T01:41:21;18.35;;;8.23;;
67861;SDS011;54665;51.462;6.698;2023-04-15T01:43:50;20.02;;;8.30;;
67861;SDS011;54665;51.462;6.698;2023-04-15T01:46:16;16.77;;;7.83;;
67861;SDS011;54665;51.462;6.698;2023-04-15T01:48:42;19.98;;;8.80;;
67861;SDS011;54665;51.462;6.698;2023-04-15T01:51:07;20.67;;;8.97;;
67861;SDS011;54665;51.462;6.698;2023-04-15T01:53:32;21.13;;;8.40;;
67861;SDS011;54665;51.462;6.698;2023-04-15T01:55:58;18.53;;;8.67;;
67861;SDS011;54665;51.462;6.698;2023-04-15T01:58:23;21.17;;;9.05;;
67861;SDS011;54665;51.462;6.698;2023-04-15T02:00:49;18.03;;;8.80;;
67861;SDS011;54665;51.462;6.698;2023-04-15T02:03:14;18.17;;;8.67;;
67861;SDS011;54665;51.462;6.698;2023-04-15T02:05:40;17.83;;;8.77;;
67861;SDS011;54665;51.462;6.698;2023-04-15T02:08:05;19.87;;;8.77;;
67861;SDS011;54665;51.462;6.698;2023-04-15T02:10:30;18.35;;;8.48;;
67861;SDS011;54665;51.462;6.698;2023-04-15T02:12:57;17.63;;;8.47;;
67861;SDS011;54665;51.462;6.698;2023-04-15T02:15:26;20.90;;;8.85;;
67861;SDS011;54665;51.462;6.698;2023-04-15T02:17:51;18.58;;;8.63;;
67861;SDS011;54665;51.462;6.698;2023-04-15T02:20:19;17.93;;;8.10;;
67861;SDS011;54665;51.462;6.698;2023-04-15T02:22:45;16.70;;;8.60;;
67861;SDS011;54665;51.462;6.698;2023-04-15T02:25:13;18.45;;;8.27;;
67861;SDS011;54665;51.462;6.698;2023-04-15T02:27:41;19.08;;;9.13;;
67861;SDS011;54665;51.462;6.698;2023-04-15T02:30:07;22.65;;;9.25;;
67861;SDS011;54665;51.462;6.698;2023-04-15T02:32:33;18.73;;;8.50;;
67861;SDS011;54665;51.462;6.698;2023-04-15T02:35:03;20.33;;;8.65;;
67861;SDS011;54665;51.462;6.698;2023-04-15T02:37:30;21.70;;;8.70;;
67861;SDS011;54665;51.462;6.698;2023-04-15T02:39:56;21.83;;;8.85;;
67861;SDS011;54665;51.462;6.698;2023-04-15T02:42:22;20.20;;;9.40;;
67861;SDS011;54665;51.462;6.698;2023-04-15T02:44:48;19.00;;;8.80;;
67861;SDS011;54665;51.462;6.698;2023-04-15T02:47:14;20.27;;;8.98;;
67861;SDS011;54665;51.462;6.698;2023-04-15T02:49:41;20.13;;;8.52;;
67861;SDS011;54665;51.462;6.698;2023-04-15T02:52:06;19.57;;;8.53;;
67861;SDS011;54665;51.462;6.698;2023-04-15T02:54:32;19.87;;;8.80;;
67861;SDS011;54665;51.462;6.698;2023-04-15T02:56:58;17.92;;;8.50;;
67861;SDS011;54665;51.462;6.698;2023-04-15T02:59:24;21.08;;;9.13;;
67861;SDS011;54665;51.462;6.698;2023-04-15T03:01:49;20.73;;;9.03;;
67861;SDS011;54665;51.462;6.698;2023-04-15T03:04:15;19.15;;;8.70;;
67861;SDS011;54665;51.462;6.698;2023-04-15T03:06:41;19.13;;;8.43;;
67861;SDS011;54665;51.462;6.698;2023-04-15T03:09:08;18.20;;;8.85;;
67861;SDS011;54665;51.462;6.698;2023-04-15T03:11:34;19.38;;;8.43;;
67861;SDS011;54665;51.462;6.698;2023-04-15T03:14:05;19.50;;;8.47;;
67861;SDS011;54665;51.462;6.698;2023-04-15T03:16:33;18.98;;;8.50;;
67861;SDS011;54665;51.462;6.698;2023-04-15T03:18:59;19.92;;;8.70;;
67861;SDS011;54665;51.462;6.698;2023-04-15T03:21:24;20.77;;;8.37;;
67861;SDS011;54665;51.462;6.698;2023-04-15T03:23:51;21.33;;;8.77;;
67861;SDS011;54665;51.462;6.698;2023-04-15T03:26:25;18.70;;;8.93;;
67861;SDS011;54665;51.462;6.698;2023-04-15T03:28:57;19.38;;;8.25;;
67861;SDS011;54665;51.462;6.698;2023-04-15T03:31:23;20.47;;;8.47;;
67861;SDS011;54665;51.462;6.698;2023-04-15T03:33:48;18.27;;;8.87;;
67861;SDS011;54665;51.462;6.698;2023-04-15T03:36:14;18.27;;;8.60;;
67861;SDS011;54665;51.462;6.698;2023-04-15T03:38:40;18.05;;;8.25;;
67861;SDS011;54665;51.462;6.698;2023-04-15T03:41:06;18.53;;;8.30;;
67861;SDS011;54665;51.462;6.698;2023-04-15T03:43:32;19.30;;;8.30;;
67861;SDS011;54665;51.462;6.698;2023-04-15T03:45:57;19.53;;;8.83;;
67861;SDS011;54665;51.462;6.698;2023-04-15T03:48:22;17.13;;;8.23;;
67861;SDS011;54665;51.462;6.698;2023-04-15T03:50:48;17.77;;;8.30;;
67861;SDS011;54665;51.462;6.698;2023-04-15T03:53:13;16.00;;;7.77;;
67861;SDS011;54665;51.462;6.698;2023-04-15T03:55:40;19.63;;;9.18;;
67861;SDS011;54665;51.462;6.698;2023-04-15T03:58:05;17.50;;;8.07;;
67861;SDS011;54665;51.462;6.698;2023-04-15T04:00:31;19.25;;;8.27;;
67861;SDS011;54665;51.462;6.698;2023-04-15T04:02:57;18.00;;;8.37;;
67861;SDS011;54665;51.462;6.698;2023-04-15T04:05:22;18.53;;;8.60;;
67861;SDS011;54665;51.462;6.698;2023-04-15T04:07:47;17.03;;;7.97;;
67861;SDS011;54665;51.462;6.698;2023-04-15T04:10:13;19.63;;;8.50;;
67861;SDS011;54665;51.462;6.698;2023-04-15T04:12:41;22.30;;;8.27;;
67861;SDS011;54665;51.462;6.698;2023-04-15T04:15:08;17.80;;;7.80;;
67861;SDS011;54665;51.462;6.698;2023-04-15T04:17:34;21.20;;;8.52;;
67861;SDS011;54665;51.462;6.698;2023-04-15T04:19:59;17.87;;;8.40;;
67861;SDS011;54665;51.462;6.698;2023-04-15T04:22:25;17.27;;;7.87;;
67861;SDS011;54665;51.462;6.698;2023-04-15T04:24:50;17.90;;;7.88;;
67861;SDS011;54665;51.462;6.698;2023-04-15T04:27:15;16.47;;;7.63;;
67861;SDS011;54665;51.462;6.698;2023-04-15T04:29:41;19.20;;;8.50;;
67861;SDS011;54665;51.462;6.698;2023-04-15T04:32:07;16.80;;;7.83;;
67861;SDS011;54665;51.462;6.698;2023-04-15T04:34:32;19.90;;;8.30;;
67861;SDS011;54665;51.462;6.698;2023-04-15T04:36:57;18.13;;;8.03;;
67861;SDS011;54665;51.462;6.698;2023-04-15T04:39:23;17.70;;;7.73;;
67861;SDS011;54665;51.462;6.698;2023-04-15T04:41:48;19.40;;;8.40;;
67861;SDS011;54665;51.462;6.698;2023-04-15T04:44:16;18.52;;;8.15;;
67861;SDS011;54665;51.462;6.698;2023-04-15T04:46:41;19.13;;;8.67;;
67861;SDS011;54665;51.462;6.698;2023-04-15T04:49:07;19.23;;;8.63;;
67861;SDS011;54665;51.462;6.698;2023-04-15T04:51:32;17.50;;;8.50;;
67861;SDS011;54665;51.462;6.698;2023-04-15T04:53:58;18.60;;;8.67;;
67861;SDS011;54665;51.462;6.698;2023-04-15T04:56:23;19.40;;;8.57;;
67861;SDS011;54665;51.462;6.698;2023-04-15T04:58:48;18.03;;;8.20;;
67861;SDS011;54665;51.462;6.698;2023-04-15T05:01:14;19.70;;;8.60;;
67861;SDS011;54665;51.462;6.698;2023-04-15T05:03:39;18.43;;;8.40;;
67861;SDS011;54665;51.462;6.698;2023-04-15T05:06:05;16.67;;;8.00;;
67861;SDS011;54665;51.462;6.698;2023-04-15T05:08:32;19.03;;;8.57;;
67861;SDS011;54665;51.462;6.698;2023-04-15T05:10:58;16.95;;;7.88;;
67861;SDS011;54665;51.462;6.698;2023-04-15T05:13:23;19.03;;;8.23;;
67861;SDS011;54665;51.462;6.698;2023-04-15T05:15:49;17.37;;;8.20;;
67861;SDS011;54665;51.462;6.698;2023-04-15T05:18:14;18.63;;;8.87;;
67861;SDS011;54665;51.462;6.698;2023-04-15T05:20:40;21.58;;;9.02;;
67861;SDS011;54665;51.462;6.698;2023-04-15T05:23:05;18.73;;;8.67;;
67861;SDS011;54665;51.462;6.698;2023-04-15T05:25:31;19.00;;;8.07;;
67861;SDS011;54665;51.462;6.698;2023-04-15T05:27:56;21.83;;;8.63;;
67861;SDS011;54665;51.462;6.698;2023-04-15T05:30:21;20.67;;;9.00;;
67861;SDS011;54665;51.462;6.698;2023-04-15T05:32:47;16.73;;;7.97;;
67861;SDS011;54665;51.462;6.698;2023-04-15T05:35:12;17.23;;;8.20;;
67861;SDS011;54665;51.462;6.698;2023-04-15T05:37:37;21.07;;;8.30;;
67861;SDS011;54665;51.462;6.698;2023-04-15T05:40:03;19.27;;;8.10;;
67861;SDS011;54665;51.462;6.698;2023-04-15T05:42:28;16.70;;;7.90;;
67861;SDS011;54665;51.462;6.698;2023-04-15T05:44:54;17.77;;;7.97;;
67861;SDS011;54665;51.462;6.698;2023-04-15T05:47:20;20.20;;;8.25;;
67861;SDS011;54665;51.462;6.698;2023-04-15T05:49:45;19.57;;;8.70;;
67861;SDS011;54665;51.462;6.698;2023-04-15T05:52:11;19.03;;;8.67;;
67861;SDS011;54665;51.462;6.698;2023-04-15T05:54:36;18.40;;;8.60;;
67861;SDS011;54665;51.462;6.698;2023-04-15T05:57:01;17.10;;;8.57;;
67861;SDS011;54665;51.462;6.698;2023-04-15T05:59:28;19.20;;;8.63;;
67861;SDS011;54665;51.462;6.698;2023-04-15T06:01:53;19.48;;;8.95;;
67861;SDS011;54665;51.462;6.698;2023-04-15T06:04:18;16.90;;;8.33;;
67861;SDS011;54665;51.462;6.698;2023-04-15T06:06:44;16.97;;;8.13;;
67861;SDS011;54665;51.462;6.698;2023-04-15T06:09:10;20.27;;;9.00;;
67861;SDS011;54665;51.462;6.698;2023-04-15T06:11:35;20.03;;;8.97;;
67861;SDS011;54665;51.462;6.698;2023-04-15T06:14:01;19.53;;;8.47;;
67861;SDS011;54665;51.462;6.698;2023-04-15T06:16:26;19.33;;;9.00;;
67861;SDS011;54665;51.462;6.698;2023-04-15T06:18:52;20.03;;;9.23;;
67861;SDS011;54665;51.462;6.698;2023-04-15T06:21:17;20.03;;;9.07;;
67861;SDS011;54665;51.462;6.698;2023-04-15T06:23:43;19.58;;;9.50;;
67861;SDS011;54665;51.462;6.698;2023-04-15T06:26:08;20.77;;;9.77;;
67861;SDS011;54665;51.462;6.698;2023-04-15T06:28:34;20.63;;;9.50;;
67861;SDS011;54665;51.462;6.698;2023-04-15T06:30:59;19.83;;;8.50;;
67861;SDS011;54665;51.462;6.698;2023-04-15T06:33:26;19.67;;;9.07;;
67861;SDS011;54665;51.462;6.698;2023-04-15T06:35:51;18.52;;;9.02;;
67861;SDS011;54665;51.462;6.698;2023-04-15T06:38:17;19.30;;;9.33;;
67861;SDS011;54665;51.462;6.698;2023-04-15T06:40:42;18.50;;;8.50;;
67861;SDS011;54665;51.462;6.698;2023-04-15T06:43:08;17.77;;;8.43;;
67861;SDS011;54665;51.462;6.698;2023-04-15T06:45:34;17.85;;;8.93;;
67861;SDS011;54665;51.462;6.698;2023-04-15T06:47:59;17.40;;;8.50;;
67861;SDS011;54665;51.462;6.698;2023-04-15T06:50:25;20.33;;;9.87;;
67861;SDS011;54665;51.462;6.698;2023-04-15T06:52:52;18.15;;;9.27;;
67861;SDS011;54665;51.462;6.698;2023-04-15T06:55:18;21.65;;;10.10;;
67861;SDS011;54665;51.462;6.698;2023-04-15T06:57:43;19.07;;;9.23;;
67861;SDS011;54665;51.462;6.698;2023-04-15T07:00:09;19.38;;;9.82;;
67861;SDS011;54665;51.462;6.698;2023-04-15T07:02:36;16.48;;;8.80;;
67861;SDS011;54665;51.462;6.698;2023-04-15T07:05:01;16.87;;;8.93;;
67861;SDS011;54665;51.462;6.698;2023-04-15T07:07:27;27.03;;;12.53;;
67861;SDS011;54665;51.462;6.698;2023-04-15T07:09:52;16.67;;;7.88;;
67861;SDS011;54665;51.462;6.698;2023-04-15T07:12:18;15.50;;;7.43;;
67861;SDS011;54665;51.462;6.698;2023-04-15T07:14:44;14.02;;;6.95;;
67861;SDS011;54665;51.462;6.698;2023-04-15T07:17:09;13.13;;;6.20;;
67861;SDS011;54665;51.462;6.698;2023-04-15T07:19:36;10.65;;;5.35;;
67861;SDS011;54665;51.462;6.698;2023-04-15T07:22:01;11.37;;;6.07;;
67861;SDS011;54665;51.462;6.698;2023-04-15T07:24:26;9.00;;;4.70;;
67861;SDS011;54665;51.462;6.698;2023-04-15T07:26:53;8.65;;;4.18;;
67861;SDS011;54665;51.462;6.698;2023-04-15T07:29:20;9.03;;;4.10;;
67861;SDS011;54665;51.462;6.698;2023-04-15T07:31:45;7.10;;;3.58;;
67861;SDS011;54665;51.462;6.698;2023-04-15T07:34:11;7.93;;;3.90;;
67861;SDS011;54665;51.462;6.698;2023-04-15T07:36:36;9.77;;;4.07;;
67861;SDS011;54665;51.462;6.698;2023-04-15T07:39:01;6.80;;;3.80;;
67861;SDS011;54665;51.462;6.698;2023-04-15T07:41:28;20.02;;;6.63;;
67861;SDS011;54665;51.462;6.698;2023-04-15T07:43:54;9.80;;;4.10;;
67861;SDS011;54665;51.462;6.698;2023-04-15T07:46:20;8.47;;;4.07;;
67861;SDS011;54665;51.462;6.698;2023-04-15T07:48:48;7.20;;;3.28;;
67861;SDS011;54665;51.462;6.698;2023-04-15T07:51:13;7.50;;;3.40;;
67861;SDS011;54665;51.462;6.698;2023-04-15T07:53:38;11.37;;;5.30;;
67861;SDS011;54665;51.462;6.698;2023-04-15T07:56:04;8.60;;;4.20;;
67861;SDS011;54665;51.462;6.698;2023-04-15T07:58:29;14.48;;;6.72;;
67861;SDS011;54665;51.462;6.698;2023-04-15T08:00:55;10.83;;;4.80;;
67861;SDS011;54665;51.462;6.698;2023-04-15T08:03:21;14.57;;;6.60;;
67861;SDS011;54665;51.462;6.698;2023-04-15T08:05:47;13.95;;;5.82;;
67861;SDS011;54665;51.462;6.698;2023-04-15T08:08:13;30.00;;;10.60;;
67861;SDS011;54665;51.462;6.698;2023-04-15T08:10:38;11.50;;;5.10;;
67861;SDS011;54665;51.462;6.698;2023-04-15T08:13:04;15.30;;;5.40;;
67861;SDS011;54665;51.462;6.698;2023-04-15T08:15:30;14.18;;;5.95;;
67861;SDS011;54665;51.462;6.698;2023-04-15T08:17:56;16.60;;;7.05;;
67861;SDS011;54665;51.462;6.698;2023-04-15T08:20:24;10.20;;;4.60;;
67861;SDS011;54665;51.462;6.698;2023-04-15T08:22:50;7.13;;;3.67;;
67861;SDS011;54665;51.462;6.698;2023-04-15T08:25:16;12.60;;;5.20;;
67861;SDS011;54665;51.462;6.698;2023-04-15T08:27:42;7.83;;;2.87;;
67861;SDS011;54665;51.462;6.698;2023-04-15T08:30:08;9.05;;;4.70;;
67861;SDS011;54665;51.462;6.698;2023-04-15T08:32:33;10.87;;;4.07;;
67861;SDS011;54665;51.462;6.698;2023-04-15T08:34:59;9.97;;;4.60;;
67861;SDS011;54665;51.462;6.698;2023-04-15T08:37:24;13.40;;;6.03;;
67861;SDS011;54665;51.462;6.698;2023-04-15T08:39:50;6.93;;;2.70;;
67861;SDS011;54665;51.462;6.698;2023-04-15T08:42:16;10.10;;;4.53;;
67861;SDS011;54665;51.462;6.698;2023-04-15T08:44:47;11.10;;;4.90;;
67861;SDS011;54665;51.462;6.698;2023-04-15T08:47:13;13.15;;;6.20;;
67861;SDS011;54665;51.462;6.698;2023-04-15T08:49:39;8.63;;;4.25;;
67861;SDS011;54665;51.462;6.698;2023-04-15T08:52:06;8.00;;;3.37;;
67861;SDS011;54665;51.462;6.698;2023-04-15T08:54:33;7.25;;;2.90;;
67861;SDS011;54665;51.462;6.698;2023-04-15T08:56:59;7.47;;;3.28;;
67861;SDS011;54665;51.462;6.698;2023-04-15T08:59:26;5.30;;;2.28;;
67861;SDS011;54665;51.462;6.698;2023-04-15T09:01:51;5.63;;;2.60;;
67861;SDS011;54665;51.462;6.698;2023-04-15T09:04:18;4.72;;;2.40;;
67861;SDS011;54665;51.462;6.698;2023-04-15T09:06:43;14.30;;;5.63;;
67861;SDS011;54665;51.462;6.698;2023-04-15T09:09:09;21.93;;;8.73;;
67861;SDS011;54665;51.462;6.698;2023-04-15T09:11:34;11.05;;;4.65;;
67861;SDS011;54665;51.462;6.698;2023-04-15T09:14:00;9.20;;;4.03;;
67861;SDS011;54665;51.462;6.698;2023-04-15T09:16:26;22.13;;;9.32;;
67861;SDS011;54665;51.462;6.698;2023-04-15T09:18:52;7.10;;;3.30;;
67861;SDS011;54665;51.462;6.698;2023-04-15T09:21:18;10.90;;;4.25;;
67861;SDS011;54665;51.462;6.698;2023-04-15T09:23:56;8.63;;;4.20;;
67861;SDS011;54665;51.462;6.698;2023-04-15T09:26:32;5.72;;;2.85;;
67861;SDS011;54665;51.462;6.698;2023-04-15T09:29:08;16.58;;;6.93;;
67861;SDS011;54665;51.462;6.698;2023-04-15T09:31:37;11.32;;;4.85;;
67861;SDS011;54665;51.462;6.698;2023-04-15T09:34:03;7.73;;;3.57;;
67861;SDS011;54665;51.462;6.698;2023-04-15T09:36:35;25.83;;;10.23;;
67861;SDS011;54665;51.462;6.698;2023-04-15T09:39:15;10.73;;;4.28;;
67861;SDS011;54665;51.462;6.698;2023-04-15T09:41:41;22.63;;;8.50;;
67861;SDS011;54665;51.462;6.698;2023-04-15T09:44:29;8.90;;;3.22;;
67861;SDS011;54665;51.462;6.698;2023-04-15T09:46:54;10.60;;;3.92;;
67861;SDS011;54665;51.462;6.698;2023-04-15T09:49:20;8.53;;;4.33;;
67861;SDS011;54665;51.462;6.698;2023-04-15T09:51:45;15.87;;;6.53;;
67861;SDS011;54665;51.462;6.698;2023-04-15T09:54:11;9.20;;;3.50;;
67861;SDS011;54665;51.462;6.698;2023-04-15T09:56:37;12.50;;;4.30;;
67861;SDS011;54665;51.462;6.698;2023-04-15T09:59:05;13.75;;;4.38;;
67861;SDS011;54665;51.462;6.698;2023-04-15T10:01:34;6.50;;;3.22;;
67861;SDS011;54665;51.462;6.698;2023-04-15T10:04:03;11.80;;;5.32;;
67861;SDS011;54665;51.462;6.698;2023-04-15T10:06:29;8.13;;;3.50;;
67861;SDS011;54665;51.462;6.698;2023-04-15T10:08:58;7.60;;;3.35;;
67861;SDS011;54665;51.462;6.698;2023-04-15T10:11:27;10.30;;;5.13;;
67861;SDS011;54665;51.462;6.698;2023-04-15T10:13:53;8.35;;;4.10;;
67861;SDS011;54665;51.462;6.698;2023-04-15T10:16:20;6.20;;;3.17;;
67861;SDS011;54665;51.462;6.698;2023-04-15T10:18:53;5.90;;;3.13;;
67861;SDS011;54665;51.462;6.698;2023-04-15T10:21:20;6.03;;;2.90;;
67861;SDS011;54665;51.462;6.698;2023-04-15T10:23:47;8.07;;;3.75;;
67861;SDS011;54665;51.462;6.698;2023-04-15T10:26:13;10.25;;;4.50;;
67861;SDS011;54665;51.462;6.698;2023-04-15T10:28:40;8.50;;;4.77;;
67861;SDS011;54665;51.462;6.698;2023-04-15T10:31:06;10.98;;;3.95;;
67861;SDS011;54665;51.462;6.698;2023-04-15T10:33:32;7.15;;;3.88;;
67861;SDS011;54665;51.462;6.698;2023-04-15T10:35:59;8.43;;;3.97;;
67861;SDS011;54665;51.462;6.698;2023-04-15T10:46:50;5.35;;;2.50;;
67861;SDS011;54665;51.462;6.698;2023-04-15T10:49:09;6.28;;;3.50;;
67861;SDS011;54665;51.462;6.698;2023-04-15T10:51:39;5.38;;;3.13;;
67861;SDS011;54665;51.462;6.698;2023-04-15T10:54:12;5.50;;;2.87;;
67861;SDS011;54665;51.462;6.698;2023-04-15T10:56:40;5.22;;;2.88;;
67861;SDS011;54665;51.462;6.698;2023-04-15T10:59:09;4.88;;;2.55;;
67861;SDS011;54665;51.462;6.698;2023-04-15T11:01:54;5.65;;;2.88;;
67861;SDS011;54665;51.462;6.698;2023-04-15T11:07:33;8.70;;;4.07;;
67861;SDS011;54665;51.462;6.698;2023-04-15T11:09:59;6.20;;;3.28;;
67861;SDS011;54665;51.462;6.698;2023-04-15T11:12:35;6.72;;;3.25;;
67861;SDS011;54665;51.462;6.698;2023-04-15T11:23:14;6.60;;;3.30;;
67861;SDS011;54665;51.462;6.698;2023-04-15T11:25:42;13.35;;;5.45;;
67861;SDS011;54665;51.462;6.698;2023-04-15T11:28:08;16.80;;;6.85;;
67861;SDS011;54665;51.462;6.698;2023-04-15T11:30:35;7.80;;;3.60;;
67861;SDS011;54665;51.462;6.698;2023-04-15T11:33:02;4.75;;;2.30;;
67861;SDS011;54665;51.462;6.698;2023-04-15T11:35:29;10.13;;;4.32;;
67861;SDS011;54665;51.462;6.698;2023-04-15T11:37:55;6.03;;;2.60;;
67861;SDS011;54665;51.462;6.698;2023-04-15T11:40:22;10.02;;;4.43;;
67861;SDS011;54665;51.462;6.698;2023-04-15T11:43:10;7.93;;;3.67;;
67861;SDS011;54665;51.462;6.698;2023-04-15T11:45:48;12.25;;;5.75;;
67861;SDS011;54665;51.462;6.698;2023-04-15T11:48:22;6.78;;;3.00;;
67861;SDS011;54665;51.462;6.698;2023-04-15T11:50:52;12.47;;;5.40;;
67861;SDS011;54665;51.462;6.698;2023-04-15T11:53:35;8.93;;;3.95;;
67861;SDS011;54665;51.462;6.698;2023-04-15T11:56:02;12.30;;;5.40;;
67861;SDS011;54665;51.462;6.698;2023-04-15T11:58:27;7.13;;;3.03;;
67861;SDS011;54665;51.462;6.698;2023-04-15T12:00:54;12.63;;;4.28;;
67861;SDS011;54665;51.462;6.698;2023-04-15T12:11:13;6.90;;;3.40;;
67861;SDS011;54665;51.462;6.698;2023-04-15T12:13:42;12.70;;;2.70;;
67861;SDS011;54665;51.462;6.698;2023-04-15T12:16:08;6.00;;;2.53;;
67861;SDS011;54665;51.462;6.698;2023-04-15T12:18:36;6.10;;;2.28;;
67861;SDS011;54665;51.462;6.698;2023-04-15T12:21:08;6.40;;;2.30;;
67861;SDS011;54665;51.462;6.698;2023-04-15T12:23:39;5.78;;;2.40;;
67861;SDS011;54665;51.462;6.698;2023-04-15T12:26:12;11.00;;;3.67;;
67861;SDS011;54665;51.462;6.698;2023-04-15T12:28:39;6.33;;;2.57;;
67861;SDS011;54665;51.462;6.698;2023-04-15T12:31:09;7.18;;;3.25;;
67861;SDS011;54665;51.462;6.698;2023-04-15T12:33:35;10.20;;;2.17;;
67861;SDS011;54665;51.462;6.698;2023-04-15T12:36:02;5.75;;;2.30;;
67861;SDS011;54665;51.462;6.698;2023-04-15T12:38:27;3.80;;;1.83;;
67861;SDS011;54665;51.462;6.698;2023-04-15T12:40:53;6.47;;;2.40;;
67861;SDS011;54665;51.462;6.698;2023-04-15T12:43:18;4.83;;;2.27;;
67861;SDS011;54665;51.462;6.698;2023-04-15T12:45:44;4.20;;;2.20;;
67861;SDS011;54665;51.462;6.698;2023-04-15T12:48:09;4.10;;;2.25;;
67861;SDS011;54665;51.462;6.698;2023-04-15T12:50:35;16.97;;;3.50;;
67861;SDS011;54665;51.462;6.698;2023-04-15T12:53:01;5.63;;;2.33;;
67861;SDS011;54665;51.462;6.698;2023-04-15T12:55:27;5.75;;;2.13;;
67861;SDS011;54665;51.462;6.698;2023-04-15T12:57:54;4.75;;;2.58;;
67861;SDS011;54665;51.462;6.698;2023-04-15T13:00:21;6.20;;;2.88;;
67861;SDS011;54665;51.462;6.698;2023-04-15T13:02:46;11.93;;;2.87;;
67861;SDS011;54665;51.462;6.698;2023-04-15T13:05:12;5.07;;;2.33;;
67861;SDS011;54665;51.462;6.698;2023-04-15T13:07:38;5.40;;;2.58;;
67861;SDS011;54665;51.462;6.698;2023-04-15T13:10:04;5.60;;;2.15;;
67861;SDS011;54665;51.462;6.698;2023-04-15T13:12:30;5.93;;;2.40;;
67861;SDS011;54665;51.462;6.698;2023-04-15T13:14:57;8.48;;;3.28;;
67861;SDS011;54665;51.462;6.698;2023-04-15T13:17:22;8.40;;;2.90;;
67861;SDS011;54665;51.462;6.698;2023-04-15T13:19:47;8.20;;;3.50;;
67861;SDS011;54665;51.462;6.698;2023-04-15T13:22:13;7.03;;;3.23;;
67861;SDS011;54665;51.462;6.698;2023-04-15T13:24:39;6.80;;;3.35;;
67861;SDS011;54665;51.462;6.698;2023-04-15T13:27:04;4.97;;;2.33;;
67861;SDS011;54665;51.462;6.698;2023-04-15T13:29:31;30.55;;;11.60;;
67861;SDS011;54665;51.462;6.698;2023-04-15T13:31:56;15.40;;;6.13;;
67861;SDS011;54665;51.462;6.698;2023-04-15T13:34:22;4.90;;;2.42;;
67861;SDS011;54665;51.462;6.698;2023-04-15T13:36:47;7.77;;;2.90;;
67861;SDS011;54665;51.462;6.698;2023-04-15T13:39:13;6.60;;;2.53;;
67861;SDS011;54665;51.462;6.698;2023-04-15T13:41:39;11.77;;;4.63;;
67861;SDS011;54665;51.462;6.698;2023-04-15T13:44:04;10.88;;;4.47;;
67861;SDS011;54665;51.462;6.698;2023-04-15T13:46:30;6.80;;;2.43;;
67861;SDS011;54665;51.462;6.698;2023-04-15T13:48:57;8.32;;;3.40;;
67861;SDS011;54665;51.462;6.698;2023-04-15T13:51:22;7.65;;;2.95;;
67861;SDS011;54665;51.462;6.698;2023-04-15T13:53:48;7.10;;;3.10;;
67861;SDS011;54665;51.462;6.698;2023-04-15T13:56:13;5.87;;;2.13;;
67861;SDS011;54665;51.462;6.698;2023-04-15T13:58:39;4.07;;;2.20;;
67861;SDS011;54665;51.462;6.698;2023-04-15T14:01:05;4.20;;;2.13;;
67861;SDS011;54665;51.462;6.698;2023-04-15T14:03:30;5.68;;;2.40;;
67861;SDS011;54665;51.462;6.698;2023-04-15T14:05:56;4.33;;;1.87;;
67861;SDS011;54665;51.462;6.698;2023-04-15T14:08:22;4.13;;;1.67;;
67861;SDS011;54665;51.462;6.698;2023-04-15T14:10:49;3.53;;;1.80;;
67861;SDS011;54665;51.462;6.698;2023-04-15T14:13:14;4.18;;;1.90;;
67861;SDS011;54665;51.462;6.698;2023-04-15T14:15:40;4.47;;;2.40;;
67861;SDS011;54665;51.462;6.698;2023-04-15T14:18:06;6.87;;;2.70;;
67861;SDS011;54665;51.462;6.698;2023-04-15T14:20:31;3.80;;;2.30;;
67861;SDS011;54665;51.462;6.698;2023-04-15T14:22:57;4.20;;;2.50;;
67861;SDS011;54665;51.462;6.698;2023-04-15T14:25:22;3.80;;;2.20;;
67861;SDS011;54665;51.462;6.698;2023-04-15T14:27:47;4.43;;;2.20;;
67861;SDS011;54665;51.462;6.698;2023-04-15T14:30:13;4.07;;;1.80;;
67861;SDS011;54665;51.462;6.698;2023-04-15T14:32:38;3.97;;;1.57;;
67861;SDS011;54665;51.462;6.698;2023-04-15T14:35:04;4.82;;;1.92;;
67861;SDS011;54665;51.462;6.698;2023-04-15T14:37:30;4.80;;;2.43;;
67861;SDS011;54665;51.462;6.698;2023-04-15T14:39:55;3.42;;;1.80;;
67861;SDS011;54665;51.462;6.698;2023-04-15T14:42:21;6.80;;;2.77;;
67861;SDS011;54665;51.462;6.698;2023-04-15T14:44:46;6.03;;;2.43;;
67861;SDS011;54665;51.462;6.698;2023-04-15T14:47:11;5.67;;;2.80;;
67861;SDS011;54665;51.462;6.698;2023-04-15T14:49:37;8.83;;;3.83;;
67861;SDS011;54665;51.462;6.698;2023-04-15T14:52:02;6.13;;;2.13;;
67861;SDS011;54665;51.462;6.698;2023-04-15T14:54:28;8.93;;;4.37;;
67861;SDS011;54665;51.462;6.698;2023-04-15T14:56:54;10.82;;;3.67;;
67861;SDS011;54665;51.462;6.698;2023-04-15T14:59:20;7.40;;;2.80;;
67861;SDS011;54665;51.462;6.698;2023-04-15T15:01:46;25.50;;;9.50;;